Malton, Canada
Current Conditions -  °F | °C
As of 3:00 AM on Wednesday 22 Oct 2014 (Local Time) from CYYZ Reporting Station
Overcast Overcast  
Wind Chill: 36°   Ceiling: 5000
Heat Index: 43°   Visibility: 15mi
Dew Point: 34°   Wind: 14mph
Humidity: 70%   Direction: 10°N
Pressure: 30.19"   Gusts: NA
Location:  43.72°N, 79.64°W
Report Text: CYYZ 220700Z 01012KT 15SM SCT026 OVC050 06/01 A3019 RMK SC3SC5 SLP226
Loading
Personal Weather Stations






























Interactive Weather Map
Tropical Storm Tracking
New forecast layout! Learn more

10-Day Weather Forecast

Advertisements
Track Severe Weather on mobile